Time;durP1;ratioP1;P1;durP2;ratioP2;P2;SDS_P1;SDS_P2;PMS_P1;PMS_P2;Temp;Humidity;BMP_temperature;BMP_pressure;BME280_temperature;BME280_humidity;BME280_pressure;Samples;Min_cycle;Max_cycle;Signal;HPM_P1;HPM_P2
2022/08/06 00:02:12;;;;;;;4.40;0.52;;;15.50;99.90;;;;;;4919222;29;20052;-82
2022/08/06 00:05:01;;;;;;;1.05;0.30;;;15.50;99.90;;;;;;4904561;29;20044;-83
2022/08/06 00:07:47;;;;;;;2.30;0.15;;;15.50;99.90;;;;;;4900527;29;20119;-86
2022/08/06 00:10:33;;;;;;;2.97;0.40;;;15.50;99.90;;;;;;4917547;29;20111;-85
2022/08/06 00:13:20;;;;;;;2.92;0.40;;;15.50;99.90;;;;;;4917689;29;20051;-82
2022/08/06 00:16:06;;;;;;;4.60;0.30;;;15.50;99.90;;;;;;4917875;29;20059;-83
2022/08/06 00:18:52;;;;;;;4.13;0.40;;;15.50;99.90;;;;;;4916789;29;20533;-83
2022/08/06 00:21:39;;;;;;;1.67;0.22;;;15.50;99.90;;;;;;4921483;29;20080;-85
2022/08/06 00:24:25;;;;;;;1.45;0.20;;;15.50;99.90;;;;;;4916584;29;20063;-85
2022/08/06 00:27:11;;;;;;;1.02;0.20;;;15.50;99.90;;;;;;4916707;29;20465;-82
2022/08/06 00:29:57;;;;;;;2.20;0.30;;;15.50;99.90;;;;;;4904636;29;20048;-83
2022/08/06 00:32:43;;;;;;;2.30;0.40;;;15.50;99.90;;;;;;4921132;29;20052;-84
2022/08/06 00:35:29;;;;;;;1.13;0.35;;;15.50;99.90;;;;;;4920541;29;20119;-85
2022/08/06 00:38:16;;;;;;;2.25;0.25;;;15.60;99.90;;;;;;4916353;29;20147;-85
2022/08/06 00:41:05;;;;;;;2.22;0.40;;;15.60;99.90;;;;;;4905394;29;20051;-82
2022/08/06 00:43:51;;;;;;;4.03;0.57;;;15.60;99.90;;;;;;4920331;29;20103;-83
2022/08/06 00:46:38;;;;;;;1.45;0.40;;;15.60;99.90;;;;;;4900988;29;20505;-83
2022/08/06 00:49:24;;;;;;;2.35;0.30;;;15.60;99.90;;;;;;4901857;29;20059;-82
2022/08/06 00:52:11;;;;;;;3.13;0.40;;;15.60;99.90;;;;;;4915739;29;20071;-81
2022/08/06 00:54:57;;;;;;;3.38;0.20;;;15.60;99.90;;;;;;4916645;29;20103;-82
2022/08/06 00:57:43;;;;;;;2.15;0.20;;;15.60;99.90;;;;;;4916041;29;20559;-83
2022/08/06 01:00:29;;;;;;;1.48;0.20;;;15.50;99.90;;;;;;4900310;29;20393;-83
2022/08/06 01:03:16;;;;;;;2.10;0.30;;;15.50;99.90;;;;;;4915495;29;20052;-84
2022/08/06 01:06:03;;;;;;;2.60;0.20;;;15.50;99.90;;;;;;4915807;29;20052;-84
2022/08/06 01:08:49;;;;;;;1.90;0.20;;;15.60;99.90;;;;;;4886242;29;20496;-81
2022/08/06 01:11:35;;;;;;;0.70;0.20;;;15.60;99.90;;;;;;4917551;29;20139;-84
2022/08/06 01:14:21;;;;;;;1.02;0.30;;;15.60;99.90;;;;;;4903806;29;20052;-84
2022/08/06 01:17:17;;;;;;;3.05;0.35;;;15.60;99.90;;;;;;4915249;29;20048;-82
2022/08/06 01:20:31;;;;;;;1.17;0.30;;;15.60;99.90;;;;;;4915143;29;20052;-84
2022/08/06 01:23:32;;;;;;;2.67;0.47;;;15.50;99.90;;;;;;4899145;29;20072;-81
2022/08/06 01:26:39;;;;;;;1.33;0.20;;;15.50;99.90;;;;;;4915175;29;20052;-83
2022/08/06 01:29:35;;;;;;;1.98;0.20;;;15.40;99.90;;;;;;4898527;29;20254;-85
2022/08/06 01:32:28;;;;;;;2.10;0.20;;;15.40;99.90;;;;;;4897622;29;20056;-83
2022/08/06 01:35:20;;;;;;;2.22;0.30;;;15.40;99.90;;;;;;4914786;29;20056;-84
2022/08/06 01:38:32;;;;;;;0.80;0.20;;;15.40;99.90;;;;;;4920823;29;20044;-82
2022/08/06 01:41:38;;;;;;;2.95;0.32;;;15.40;99.90;;;;;;4914676;29;20054;-82
2022/08/06 01:44:37;;;;;;;1.95;0.40;;;15.30;99.90;;;;;;4898660;29;20060;-81
2022/08/06 01:47:25;;;;;;;3.20;0.40;;;15.20;99.90;;;;;;4902159;29;20063;-84
2022/08/06 01:50:16;;;;;;;1.70;0.20;;;15.30;99.90;;;;;;4898184;29;20548;-83
2022/08/06 01:53:05;;;;;;;2.58;0.20;;;15.30;99.90;;;;;;4897749;29;20056;-81
2022/08/06 01:55:56;;;;;;;2.53;0.20;;;15.20;99.90;;;;;;4914575;29;20056;-84
2022/08/06 01:58:45;;;;;;;2.42;0.30;;;15.20;99.90;;;;;;4903062;29;20055;-84
2022/08/06 02:01:35;;;;;;;1.52;0.20;;;15.20;99.90;;;;;;4915239;29;20063;-84
2022/08/06 02:04:25;;;;;;;1.75;0.30;;;15.20;99.90;;;;;;4901853;29;20647;-86
2022/08/06 02:07:14;;;;;;;3.47;0.28;;;15.30;99.90;;;;;;4885714;29;20048;-87
2022/08/06 02:10:04;;;;;;;1.45;0.30;;;15.30;99.90;;;;;;4921083;29;20052;-85
2022/08/06 02:12:52;;;;;;;0.55;0.20;;;15.30;99.90;;;;;;4899221;29;20052;-85
2022/08/06 02:15:39;;;;;;;3.45;0.40;;;15.40;99.90;;;;;;4899343;29;20575;-84
2022/08/06 02:18:28;;;;;;;1.60;0.32;;;15.30;99.90;;;;;;4918242;29;20056;-85
2022/08/06 02:21:19;;;;;;;1.52;0.28;;;15.40;99.90;;;;;;4918170;29;20515;-84
2022/08/06 02:24:08;;;;;;;2.55;0.50;;;15.40;99.90;;;;;;4918146;29;20452;-83
2022/08/06 02:26:58;;;;;;;1.90;0.40;;;15.40;99.90;;;;;;4901186;29;20052;-85
2022/08/06 02:29:45;;;;;;;2.92;0.50;;;15.40;99.90;;;;;;4917826;29;20181;-84
2022/08/06 02:32:31;;;;;;;2.67;0.40;;;15.40;99.90;;;;;;4900844;29;20048;-84
2022/08/06 02:35:17;;;;;;;1.65;0.30;;;15.40;99.90;;;;;;4917761;29;20056;-85
2022/08/06 02:38:11;;;;;;;2.00;0.40;;;15.40;99.90;;;;;;4922677;29;20044;-81
2022/08/06 02:41:04;;;;;;;2.05;0.80;;;15.40;99.90;;;;;;4922210;29;20056;-86
2022/08/06 02:43:55;;;;;;;1.90;0.30;;;15.40;99.90;;;;;;4917445;29;20059;-85
2022/08/06 02:46:52;;;;;;;5.13;0.55;;;15.40;99.90;;;;;;4917914;29;20152;-84
2022/08/06 02:49:44;;;;;;;4.50;0.50;;;15.50;99.90;;;;;;4917360;29;20045;-86
2022/08/06 02:52:40;;;;;;;3.70;0.68;;;15.50;99.90;;;;;;4917601;29;20044;-87
2022/08/06 02:55:31;;;;;;;5.22;0.50;;;15.50;99.90;;;;;;4900233;29;20048;-86
2022/08/06 02:58:25;;;;;;;4.15;0.50;;;15.40;99.90;;;;;;4917610;29;20111;-83
2022/08/06 03:01:18;;;;;;;2.50;0.52;;;15.50;99.90;;;;;;4918696;29;20060;-83
2022/08/06 03:04:06;;;;;;;0.95;0.20;;;15.40;99.90;;;;;;4893365;29;20110;-86
2022/08/06 03:06:53;;;;;;;2.38;0.35;;;15.40;99.90;;;;;;4902373;29;20056;-85
2022/08/06 03:09:45;;;;;;;3.00;0.70;;;15.30;99.90;;;;;;4888993;29;20063;-83
2022/08/06 03:12:35;;;;;;;2.97;0.70;;;15.30;99.90;;;;;;4917896;29;20143;-85
2022/08/06 03:15:24;;;;;;;3.17;0.40;;;15.20;99.90;;;;;;4906087;29;20051;-83
2022/08/06 03:18:13;;;;;;;2.05;0.50;;;15.20;99.90;;;;;;4919908;29;20052;-82
2022/08/06 03:21:01;;;;;;;2.13;0.73;;;15.10;99.90;;;;;;4918590;29;20166;-85
2022/08/06 03:23:49;;;;;;;3.78;0.60;;;15.10;99.90;;;;;;4901236;29;20052;-85
2022/08/06 03:26:37;;;;;;;3.35;0.60;;;15.10;99.90;;;;;;4900137;29;20111;-85
2022/08/06 03:29:25;;;;;;;2.00;0.50;;;15.10;99.90;;;;;;4917689;29;20052;-82
2022/08/06 03:32:13;;;;;;;1.90;0.63;;;15.00;99.90;;;;;;4901641;29;20051;-83
2022/08/06 03:35:00;;;;;;;2.30;0.60;;;15.00;99.90;;;;;;4911395;29;20062;-83
2022/08/06 03:37:48;;;;;;;4.38;0.88;;;14.90;99.90;;;;;;4904027;29;20481;-82
2022/08/06 03:40:36;;;;;;;5.05;0.60;;;14.90;99.90;;;;;;4917023;29;20547;-82
2022/08/06 03:43:22;;;;;;;2.30;0.75;;;14.70;99.90;;;;;;4899416;29;20095;-83
2022/08/06 03:46:09;;;;;;;6.80;1.00;;;14.70;99.90;;;;;;4915890;29;20048;-81
2022/08/06 03:49:01;;;;;;;7.22;0.88;;;14.70;99.90;;;;;;4898938;29;20052;-83
2022/08/06 03:51:51;;;;;;;7.53;0.90;;;14.70;99.90;;;;;;4899209;29;20496;-81
2022/08/06 03:54:46;;;;;;;3.70;0.98;;;14.70;99.90;;;;;;4915923;29;20087;-80
2022/08/06 03:57:38;;;;;;;4.53;0.77;;;14.70;99.90;;;;;;4899309;29;20515;-80
2022/08/06 04:00:26;;;;;;;4.65;0.70;;;14.70;99.90;;;;;;4916137;29;20148;-84
2022/08/06 04:03:13;;;;;;;5.70;1.20;;;14.70;99.90;;;;;;4902497;29;20048;-82
2022/08/06 04:06:01;;;;;;;4.00;0.57;;;14.70;99.90;;;;;;4917340;29;20417;-85
2022/08/06 04:08:48;;;;;;;2.97;0.65;;;14.60;99.90;;;;;;4922893;29;20055;-81
2022/08/06 04:11:35;;;;;;;4.38;1.00;;;14.60;99.90;;;;;;4915311;29;20048;-85
2022/08/06 04:14:22;;;;;;;3.60;0.80;;;14.60;99.90;;;;;;4915269;29;20085;-81
2022/08/06 04:17:10;;;;;;;2.42;0.60;;;14.50;99.90;;;;;;4915545;29;20416;-82
2022/08/06 04:19:58;;;;;;;1.55;0.68;;;14.50;99.90;;;;;;4898445;29;20415;-83
2022/08/06 04:22:44;;;;;;;4.85;0.70;;;14.50;99.90;;;;;;4901727;29;20056;-82
2022/08/06 04:25:38;;;;;;;2.08;0.60;;;14.50;99.90;;;;;;4915112;29;20717;-81
2022/08/06 04:28:27;;;;;;;3.88;0.70;;;14.50;99.90;;;;;;4898676;29;20052;-82
2022/08/06 04:31:14;;;;;;;3.90;1.60;;;14.50;99.90;;;;;;4898888;29;20052;-85
2022/08/06 04:34:02;;;;;;;3.17;0.70;;;14.50;99.90;;;;;;4901952;29;20777;-83
2022/08/06 04:36:49;;;;;;;5.60;1.08;;;14.60;99.90;;;;;;4918224;29;20641;-83
2022/08/06 04:39:35;;;;;;;3.92;0.88;;;14.60;99.90;;;;;;4916750;29;20056;-84
2022/08/06 04:42:22;;;;;;;1.45;0.70;;;14.60;99.90;;;;;;4915626;29;20415;-86
2022/08/06 04:45:09;;;;;;;2.72;0.80;;;14.60;99.90;;;;;;4898735;29;20139;-86
2022/08/06 04:47:56;;;;;;;5.15;1.20;;;14.60;99.90;;;;;;4902005;29;20052;-83
2022/08/06 04:50:42;;;;;;;4.68;1.00;;;14.50;99.90;;;;;;4915460;29;20083;-82
2022/08/06 04:53:36;;;;;;;3.33;0.82;;;14.60;99.90;;;;;;4915781;29;20048;-82
2022/08/06 04:56:22;;;;;;;4.07;0.90;;;14.50;99.90;;;;;;4914954;29;20052;-85
2022/08/06 04:59:09;;;;;;;3.95;1.10;;;14.50;99.90;;;;;;4898610;29;20139;-84
2022/08/06 05:01:58;;;;;;;4.13;0.75;;;14.50;99.90;;;;;;4920752;29;20107;-82
2022/08/06 05:04:45;;;;;;;1.73;0.80;;;14.50;99.90;;;;;;4901664;29;20048;-83
2022/08/06 05:07:34;;;;;;;4.05;0.90;;;14.50;99.90;;;;;;4898535;29;20044;-83
2022/08/06 05:10:23;;;;;;;2.15;0.90;;;14.50;99.90;;;;;;4915076;29;20091;-81
2022/08/06 05:13:13;;;;;;;7.50;1.38;;;14.60;99.90;;;;;;4898826;29;20084;-85
2022/08/06 05:16:05;;;;;;;2.30;0.90;;;14.80;99.90;;;;;;4898839;29;20493;-83
2022/08/06 05:19:00;;;;;;;6.00;1.13;;;14.90;99.90;;;;;;4915692;29;20602;-83
2022/08/06 05:21:48;;;;;;;4.30;1.02;;;15.20;99.90;;;;;;4898816;29;20051;-83
2022/08/06 05:24:34;;;;;;;3.97;0.90;;;15.30;99.90;;;;;;4915394;29;20131;-84
2022/08/06 05:27:21;;;;;;;5.63;1.10;;;15.40;99.90;;;;;;4916752;29;20095;-81
2022/08/06 05:30:08;;;;;;;3.28;0.80;;;15.60;99.90;;;;;;4902966;29;20079;-83
2022/08/06 05:32:55;;;;;;;2.83;1.25;;;15.80;99.90;;;;;;4918529;29;20099;-85
2022/08/06 05:35:41;;;;;;;2.95;0.65;;;15.80;99.90;;;;;;4923816;29;20048;-85
2022/08/06 05:38:28;;;;;;;5.72;0.95;;;15.90;99.90;;;;;;4904076;29;20056;-81
2022/08/06 05:41:14;;;;;;;2.58;0.60;;;15.90;99.90;;;;;;4916014;29;20497;-84
2022/08/06 05:44:00;;;;;;;6.35;0.88;;;15.90;99.90;;;;;;4917369;29;20055;-84
2022/08/06 05:47:06;;;;;;;1.77;0.60;;;16.00;99.90;;;;;;4902367;29;20059;-82
2022/08/06 05:49:54;;;;;;;;;;;15.90;99.90;;;;;;4917769;29;20052;-80
2022/08/06 05:53:05;;;;;;;3.47;0.60;;;16.00;99.90;;;;;;4902993;29;19923;-82
2022/08/06 05:55:57;;;;;;;1.52;0.50;;;16.00;99.90;;;;;;4903207;29;20056;-85
2022/08/06 05:58:56;;;;;;;2.97;0.60;;;16.10;99.90;;;;;;4922569;29;20052;-83
2022/08/06 06:01:43;;;;;;;4.72;0.70;;;16.20;99.90;;;;;;4894860;29;20051;-85
2022/08/06 06:04:32;;;;;;;3.50;0.55;;;16.20;99.90;;;;;;4922830;29;20052;-86
2022/08/06 06:07:18;;;;;;;2.88;0.30;;;16.20;99.90;;;;;;4922270;29;20114;-84
2022/08/06 06:10:06;;;;;;;4.32;0.50;;;16.20;99.90;;;;;;4927588;29;20048;-82
2022/08/06 06:12:54;;;;;;;4.32;0.32;;;16.20;99.90;;;;;;4925053;29;20048;-82
2022/08/06 06:15:46;;;;;;;4.40;0.50;;;16.20;99.90;;;;;;4924247;29;20052;-81
2022/08/06 06:18:43;;;;;;;3.05;0.50;;;16.30;99.90;;;;;;4920901;29;20052;-82
2022/08/06 06:22:02;;;;;;;3.90;0.52;;;16.30;99.90;;;;;;4922511;29;20314;-83
2022/08/06 06:24:55;;;;;;;2.55;0.60;;;16.30;99.90;;;;;;4923026;29;20045;-83
2022/08/06 06:27:57;;;;;;;2.53;0.60;;;16.30;99.90;;;;;;4925377;29;20064;-85
2022/08/06 06:30:57;;;;;;;3.80;0.63;;;16.40;99.90;;;;;;4910954;29;20111;-83
2022/08/06 06:34:01;;;;;;;2.35;0.70;;;16.60;99.90;;;;;;4907563;29;20048;-87
2022/08/06 06:36:56;;;;;;;3.22;0.60;;;16.80;99.90;;;;;;4927758;29;20112;-88
2022/08/06 06:39:56;;;;;;;3.15;0.70;;;17.00;99.90;;;;;;4924911;29;20069;-88
2022/08/06 06:43:05;;;;;;;2.72;0.50;;;17.10;99.90;;;;;;4927994;29;20052;-87
2022/08/06 06:46:06;;;;;;;2.58;0.70;;;17.40;99.90;;;;;;4925801;29;20056;-87
2022/08/06 06:49:02;;;;;;;1.75;0.50;;;17.50;99.90;;;;;;4911545;29;20052;-87
2022/08/06 06:51:56;;;;;;;6.75;0.93;;;17.50;99.90;;;;;;4928941;29;20136;-85
2022/08/06 06:54:51;;;;;;;5.03;1.02;;;17.60;99.90;;;;;;4932859;29;20048;-81
2022/08/06 06:57:53;;;;;;;3.75;0.60;;;17.80;99.90;;;;;;4923965;29;20090;-84
2022/08/06 07:00:42;;;;;;;2.13;0.68;;;17.80;99.90;;;;;;4919498;29;20178;-85
2022/08/06 07:03:29;;;;;;;5.93;1.10;;;17.70;99.90;;;;;;4913366;29;20067;-85
2022/08/06 07:06:17;;;;;;;3.70;0.77;;;17.80;99.90;;;;;;4923608;29;20052;-85
2022/08/06 07:09:05;;;;;;;2.85;0.70;;;17.90;99.90;;;;;;4926742;29;20044;-86
2022/08/06 07:11:55;;;;;;;3.60;0.60;;;18.20;99.90;;;;;;4922253;29;20071;-87
2022/08/06 07:14:44;;;;;;;3.83;0.70;;;18.20;99.90;;;;;;4927974;29;20055;-85
2022/08/06 07:17:39;;;;;;;2.90;0.70;;;18.00;99.90;;;;;;4925943;29;20147;-85
2022/08/06 07:20:30;;;;;;;3.22;0.82;;;17.80;99.90;;;;;;4912286;29;20060;-85
2022/08/06 07:23:18;;;;;;;5.38;1.20;;;17.80;99.90;;;;;;4925605;29;20063;-80
2022/08/06 07:26:06;;;;;;;5.10;1.00;;;17.70;99.90;;;;;;4921687;29;20052;-86
2022/08/06 07:28:54;;;;;;;3.28;0.98;;;18.00;99.90;;;;;;4907194;29;20056;-83
2022/08/06 07:31:41;;;;;;;5.15;1.08;;;18.30;99.90;;;;;;4921935;29;20048;-86
2022/08/06 07:34:28;;;;;;;5.97;1.10;;;18.60;99.90;;;;;;4920828;29;20063;-89
2022/08/06 07:37:18;;;;;;;4.90;1.15;;;19.10;99.90;;;;;;4920328;29;20059;-83
2022/08/06 07:40:12;;;;;;;4.63;1.30;;;19.10;99.90;;;;;;4917290;29;20157;-83
2022/08/06 07:43:19;;;;;;;4.60;1.23;;;19.20;99.90;;;;;;4917793;29;20457;-82
2022/08/06 07:46:08;;;;;;;4.65;1.60;;;19.40;99.90;;;;;;4919961;29;20052;-84
2022/08/06 07:48:58;;;;;;;4.65;1.10;;;19.60;99.90;;;;;;4902175;29;20092;-86
2022/08/06 07:51:46;;;;;;;3.80;1.30;;;19.60;99.90;;;;;;4889081;29;20576;-83
2022/08/06 07:54:33;;;;;;;4.30;1.10;;;19.60;99.90;;;;;;4906382;29;20071;-86
2022/08/06 07:57:20;;;;;;;6.72;1.00;;;19.70;99.90;;;;;;4916376;29;20083;-82
2022/08/06 08:00:08;;;;;;;4.85;0.85;;;19.90;99.70;;;;;;4916381;29;20556;-83
2022/08/06 08:06:18;;;;;;;;;;;20.20;99.30;;;;;;4901863;29;20505;-84
2022/08/06 08:09:12;;;;;;;4.07;1.00;;;20.40;98.60;;;;;;4898371;29;19927;-80
2022/08/06 08:11:59;;;;;;;6.18;1.40;;;20.60;98.10;;;;;;4919799;29;20051;-83
2022/08/06 08:14:50;;;;;;;6.07;1.25;;;20.60;97.60;;;;;;4920063;29;20053;-83
2022/08/06 08:17:36;;;;;;;3.03;0.93;;;20.80;97.00;;;;;;4919219;29;20055;-85
2022/08/06 08:20:23;;;;;;;4.32;1.27;;;20.90;96.80;;;;;;4919279;29;20052;-84
2022/08/06 08:23:12;;;;;;;4.32;1.10;;;20.90;96.60;;;;;;4918303;29;20079;-87
2022/08/06 08:26:04;;;;;;;4.43;1.25;;;21.00;96.60;;;;;;4918666;29;20044;-84
2022/08/06 08:28:50;;;;;;;5.50;1.23;;;21.30;96.50;;;;;;4916392;29;20100;-88
2022/08/06 08:31:41;;;;;;;3.15;1.27;;;21.30;96.30;;;;;;4900986;29;20131;-88
2022/08/06 08:34:27;;;;;;;4.00;1.52;;;21.40;95.80;;;;;;4904886;29;20052;-87
2022/08/06 08:37:17;;;;;;;3.17;0.95;;;21.60;96.20;;;;;;4919546;29;20044;-86
2022/08/06 08:40:09;;;;;;;4.80;1.20;;;21.80;95.60;;;;;;4907278;29;20416;-89
2022/08/06 08:42:58;;;;;;;6.15;1.50;;;21.90;94.90;;;;;;4903654;29;20044;-91
2022/08/06 08:45:49;;;;;;;4.25;1.13;;;21.90;95.20;;;;;;4919501;29;20067;-86
2022/08/06 08:48:37;;;;;;;6.55;1.90;;;21.50;94.80;;;;;;4914410;29;20044;-85
2022/08/06 08:51:25;;;;;;;3.95;1.40;;;21.30;94.90;;;;;;4897736;29;20572;-87
2022/08/06 08:54:16;;;;;;;5.38;1.75;;;21.50;95.20;;;;;;4916628;29;20143;-88
2022/08/06 08:57:08;;;;;;;5.03;1.42;;;21.80;94.90;;;;;;4901852;29;20052;-83
2022/08/06 08:59:59;;;;;;;6.05;1.48;;;21.90;94.70;;;;;;4903431;29;20103;-83
2022/08/06 09:02:45;;;;;;;4.65;1.33;;;22.10;94.90;;;;;;4900444;29;20059;-85
2022/08/06 09:05:33;;;;;;;3.80;1.75;;;22.50;94.60;;;;;;4916542;29;20848;-86
2022/08/06 09:08:20;;;;;;;5.22;1.80;;;22.20;94.00;;;;;;4924558;29;20563;-84
2022/08/06 09:11:07;;;;;;;4.65;1.63;;;21.70;93.40;;;;;;4898725;29;20052;-83
2022/08/06 09:13:53;;;;;;;3.13;1.17;;;21.70;93.80;;;;;;4915602;29;20560;-84
2022/08/06 09:16:40;;;;;;;3.55;1.50;;;22.10;93.70;;;;;;4899262;29;20130;-85
2022/08/06 09:19:29;;;;;;;5.32;1.90;;;22.30;93.20;;;;;;4886493;29;20492;-83
2022/08/06 09:22:15;;;;;;;5.28;2.45;;;22.60;92.70;;;;;;4920979;29;20056;-83
2022/08/06 09:25:03;;;;;;;5.85;1.67;;;22.70;92.30;;;;;;4917386;29;20040;-84
2022/08/06 09:27:49;;;;;;;7.55;2.00;;;22.90;91.80;;;;;;4914793;29;20382;-84
2022/08/06 09:30:37;;;;;;;5.88;1.50;;;22.80;91.60;;;;;;4899143;29;20056;-83
2022/08/06 09:33:23;;;;;;;3.92;1.65;;;23.10;90.60;;;;;;4887508;29;20793;-81
2022/08/06 09:36:12;;;;;;;7.93;1.70;;;23.30;90.00;;;;;;4906125;29;20099;-82
2022/08/06 09:38:59;;;;;;;5.07;1.65;;;23.30;89.40;;;;;;4919798;29;20496;-82
2022/08/06 09:41:47;;;;;;;4.82;1.80;;;23.60;89.30;;;;;;4916431;29;20056;-83
2022/08/06 09:44:34;;;;;;;3.80;1.88;;;23.80;87.90;;;;;;4915519;29;20076;-83
2022/08/06 09:47:21;;;;;;;4.88;1.70;;;23.60;88.10;;;;;;4917075;29;20048;-84
2022/08/06 09:50:08;;;;;;;5.00;1.92;;;23.80;86.70;;;;;;4906505;29;20052;-83
2022/08/06 09:53:02;;;;;;;3.47;1.50;;;24.00;86.10;;;;;;4917726;29;20059;-84
2022/08/06 09:55:49;;;;;;;2.85;1.40;;;23.90;85.70;;;;;;4918765;29;20064;-82
2022/08/06 09:58:37;;;;;;;4.90;2.10;;;24.10;84.90;;;;;;4901746;29;20102;-85
2022/08/06 10:01:24;;;;;;;4.53;1.80;;;24.10;83.90;;;;;;4897911;29;20055;-83
2022/08/06 10:04:23;;;;;;;4.60;1.80;;;24.20;84.80;;;;;;4900612;29;20607;-82
2022/08/06 10:07:11;;;;;;;4.93;1.88;;;24.30;83.70;;;;;;4914472;29;20520;-81
2022/08/06 10:09:57;;;;;;;4.97;2.33;;;24.70;83.90;;;;;;4902214;29;20052;-84
2022/08/06 10:12:43;;;;;;;5.75;1.88;;;24.70;84.40;;;;;;4915224;29;20397;-82
2022/08/06 10:15:30;;;;;;;5.95;1.98;;;24.90;84.00;;;;;;4915821;29;20056;-83
2022/08/06 10:18:40;;;;;;;4.72;1.95;;;24.60;85.00;;;;;;4899050;29;20048;-81
2022/08/06 10:21:32;;;;;;;5.35;2.13;;;24.90;81.20;;;;;;4899160;29;20044;-82
2022/08/06 10:24:22;;;;;;;5.53;1.80;;;25.00;81.90;;;;;;4916149;29;20108;-83
2022/08/06 10:27:11;;;;;;;4.95;2.13;;;25.50;81.90;;;;;;4900377;29;20059;-83
2022/08/06 10:30:03;;;;;;;5.65;2.55;;;25.60;80.90;;;;;;4917914;29;20052;-84
2022/08/06 10:32:57;;;;;;;6.20;2.28;;;25.60;77.60;;;;;;4914239;29;20059;-83
2022/08/06 10:35:45;;;;;;;3.38;1.63;;;25.60;77.10;;;;;;4915639;29;20052;-86
2022/08/06 10:38:35;;;;;;;4.10;2.05;;;25.80;75.40;;;;;;4916999;29;20496;-83
2022/08/06 10:41:22;;;;;;;7.32;2.05;;;26.00;74.80;;;;;;4900191;29;20142;-82
2022/08/06 10:44:09;;;;;;;5.47;2.05;;;26.00;73.10;;;;;;4904849;29;20059;-84
2022/08/06 10:46:56;;;;;;;3.65;1.85;;;26.00;73.60;;;;;;4918655;29;20824;-81
2022/08/06 10:49:45;;;;;;;4.82;2.28;;;26.00;73.60;;;;;;4908723;29;20063;-83
2022/08/06 10:52:32;;;;;;;4.72;2.10;;;26.00;71.10;;;;;;4917876;29;20052;-87
2022/08/06 10:55:19;;;;;;;7.72;2.53;;;26.20;73.10;;;;;;4917470;29;20142;-83
2022/08/06 10:58:05;;;;;;;8.00;2.38;;;26.00;71.50;;;;;;4918030;29;20386;-84
2022/08/06 11:00:52;;;;;;;4.85;2.20;;;26.10;73.20;;;;;;4917854;29;20531;-81
2022/08/06 11:04:09;;;;;;;4.70;2.20;;;26.30;74.20;;;;;;4918026;29;20514;-83
2022/08/06 11:07:07;;;;;;;4.43;2.08;;;26.50;73.10;;;;;;4887679;29;20063;-84
2022/08/06 11:10:41;;;;;;;5.53;2.15;;;26.40;72.40;;;;;;4887729;29;20044;-83
2022/08/06 11:13:36;;;;;;;4.07;2.10;;;26.20;71.80;;;;;;4893471;29;20056;-84
2022/08/06 11:16:27;;;;;;;5.68;1.90;;;26.10;70.30;;;;;;4911043;29;20082;-84
2022/08/06 11:19:13;;;;;;;5.82;2.58;;;26.20;70.90;;;;;;4920600;29;20577;-85
2022/08/06 11:21:59;;;;;;;4.40;2.08;;;26.20;70.90;;;;;;4907491;29;20174;-83
2022/08/06 11:24:51;;;;;;;4.13;2.08;;;26.20;68.50;;;;;;4919643;29;20047;-83
2022/08/06 11:27:55;;;;;;;5.28;2.15;;;26.30;68.30;;;;;;4918009;29;20094;-82
2022/08/06 11:31:03;;;;;;;3.63;2.00;;;26.30;70.20;;;;;;4916501;29;20066;-84
2022/08/06 11:33:50;;;;;;;4.57;2.00;;;26.60;70.20;;;;;;4916609;29;20159;-82
2022/08/06 11:36:56;;;;;;;4.80;2.20;;;27.10;69.40;;;;;;4902925;29;20044;-81
2022/08/06 11:40:05;;;;;;;4.03;2.00;;;27.30;67.20;;;;;;4899802;29;20111;-80
2022/08/06 11:42:52;;;;;;;4.93;1.98;;;27.00;66.50;;;;;;4916353;29;20055;-85
2022/08/06 11:46:17;;;;;;;6.60;2.03;;;26.70;67.40;;;;;;4919446;29;20512;-83
2022/08/06 11:49:03;;;;;;;5.00;2.17;;;26.50;70.00;;;;;;4917644;29;20580;-82
2022/08/06 11:51:57;;;;;;;5.50;2.25;;;26.90;71.10;;;;;;4916504;29;20123;-81
2022/08/06 11:54:43;;;;;;;4.05;1.95;;;27.40;65.90;;;;;;4917583;29;20493;-85
2022/08/06 11:57:30;;;;;;;5.57;2.22;;;27.10;66.00;;;;;;4886517;29;20096;-83
2022/08/06 12:00:22;;;;;;;4.32;2.03;;;27.40;63.80;;;;;;4916135;29;20143;-83
2022/08/06 12:03:09;;;;;;;3.33;1.92;;;27.50;64.00;;;;;;4916418;29;20044;-81
2022/08/06 12:05:55;;;;;;;4.05;1.95;;;27.20;63.80;;;;;;4920351;29;20139;-81
2022/08/06 12:08:42;;;;;;;5.20;1.92;;;27.50;64.30;;;;;;4899450;29;20107;-83
2022/08/06 12:11:32;;;;;;;4.68;2.35;;;27.00;64.50;;;;;;4916271;29;20155;-82
2022/08/06 12:14:51;;;;;;;4.25;1.88;;;27.40;63.30;;;;;;4915903;29;20103;-82
2022/08/06 12:17:56;;;;;;;5.57;1.77;;;26.90;62.80;;;;;;4884300;29;20059;-84
2022/08/06 12:20:43;;;;;;;4.03;1.83;;;27.40;64.20;;;;;;4904095;29;20092;-84
2022/08/06 12:23:31;;;;;;;5.53;2.22;;;27.70;63.50;;;;;;4919267;29;20052;-83
2022/08/06 12:26:19;;;;;;;3.92;1.85;;;28.10;63.00;;;;;;4900911;29;20052;-82
2022/08/06 12:29:07;;;;;;;3.95;1.65;;;28.30;61.00;;;;;;4918394;29;20055;-85
2022/08/06 12:31:53;;;;;;;6.28;1.52;;;28.10;60.80;;;;;;4918614;29;20106;-90
2022/08/06 12:34:40;;;;;;;6.20;2.05;;;28.30;62.50;;;;;;4915850;29;20504;-83
2022/08/06 12:37:37;;;;;;;4.30;1.75;;;28.60;61.80;;;;;;4917040;29;20104;-83
2022/08/06 12:40:26;;;;;;;4.07;1.85;;;29.10;62.00;;;;;;4901903;29;20091;-84
2022/08/06 12:43:12;;;;;;;3.13;1.55;;;29.50;59.60;;;;;;4921876;29;20063;-85
2022/08/06 12:45:59;;;;;;;3.67;1.73;;;29.50;58.60;;;;;;4918812;29;20112;-88
2022/08/06 12:48:49;;;;;;;4.53;1.88;;;28.70;58.10;;;;;;4920347;29;20138;-83
2022/08/06 12:51:36;;;;;;;3.45;1.65;;;29.50;59.80;;;;;;4900319;29;20059;-82
2022/08/06 12:54:28;;;;;;;4.22;2.00;;;29.30;57.80;;;;;;4916813;29;20103;-86
2022/08/06 12:57:26;;;;;;;7.07;2.10;;;29.40;57.20;;;;;;4899806;28;20095;-83
2022/08/06 13:00:16;;;;;;;3.60;1.40;;;29.70;57.30;;;;;;4915557;29;20055;-83
2022/08/06 13:03:05;;;;;;;7.38;2.50;;;29.70;57.30;;;;;;4919945;29;20119;-81
2022/08/06 13:05:58;;;;;;;9.23;3.95;;;29.80;57.30;;;;;;4918318;29;20091;-83
2022/08/06 13:08:50;;;;;;;5.78;1.85;;;29.70;57.10;;;;;;4918214;29;20044;-82
2022/08/06 13:11:36;;;;;;;4.88;1.77;;;30.00;55.50;;;;;;4902872;29;20048;-80
2022/08/06 13:14:23;;;;;;;4.35;2.00;;;29.70;54.70;;;;;;4915138;29;20052;-82
2022/08/06 13:17:13;;;;;;;5.53;2.53;;;29.20;55.80;;;;;;4918796;29;20044;-89
2022/08/06 13:19:59;;;;;;;4.18;2.00;;;29.70;56.50;;;;;;4919453;28;20090;-85
2022/08/06 13:22:50;;;;;;;8.05;3.58;;;30.00;57.00;;;;;;4899309;29;20055;-84
2022/08/06 13:25:51;;;;;;;4.55;1.70;;;30.50;56.30;;;;;;4914427;29;20159;-83
2022/08/06 13:28:38;;;;;;;3.17;1.30;;;30.40;55.40;;;;;;4912905;29;20539;-79
2022/08/06 13:31:24;;;;;;;3.63;1.70;;;30.40;54.60;;;;;;4916517;29;20086;-84
2022/08/06 13:34:15;;;;;;;5.65;2.05;;;30.30;55.10;;;;;;4916777;29;20060;-85
2022/08/06 13:37:02;;;;;;;4.00;1.40;;;29.90;55.60;;;;;;4915112;29;20056;-82
2022/08/06 13:39:50;;;;;;;4.75;1.42;;;30.00;56.50;;;;;;4911452;29;20048;-80
2022/08/06 13:42:54;;;;;;;5.18;1.50;;;31.00;55.50;;;;;;4897359;29;20041;-81
2022/08/06 13:45:40;;;;;;;4.47;1.60;;;31.60;53.90;;;;;;4899410;29;20442;-83
2022/08/06 13:48:26;;;;;;;2.97;1.20;;;32.30;55.20;;;;;;4899442;29;20052;-83
2022/08/06 13:51:14;;;;;;;4.25;1.42;;;32.40;53.30;;;;;;4911254;29;20040;-84
2022/08/06 13:54:01;;;;;;;4.32;1.42;;;32.00;52.10;;;;;;4915721;29;20516;-83
2022/08/06 13:56:48;;;;;;;3.72;1.33;;;31.60;52.40;;;;;;4916460;29;20060;-84
2022/08/06 13:59:37;;;;;;;4.78;1.30;;;32.70;52.70;;;;;;4920509;29;20056;-85
2022/08/06 14:02:23;;;;;;;4.88;1.88;;;33.10;51.60;;;;;;4919873;29;20059;-82
2022/08/06 14:05:09;;;;;;;3.70;1.23;;;33.20;50.00;;;;;;4917563;28;20048;-84
2022/08/06 14:07:56;;;;;;;7.82;1.65;;;33.50;50.20;;;;;;4917695;29;20058;-86
2022/08/06 14:10:42;;;;;;;5.35;2.05;;;34.10;50.00;;;;;;4915755;29;20060;-87
2022/08/06 14:13:29;;;;;;;4.78;1.60;;;34.00;48.60;;;;;;4917632;29;20571;-82
2022/08/06 14:16:15;;;;;;;4.22;1.80;;;34.50;48.40;;;;;;4919212;29;20488;-82
2022/08/06 14:19:02;;;;;;;3.78;1.70;;;34.80;47.50;;;;;;4920436;29;20067;-87
2022/08/06 14:21:48;;;;;;;2.80;1.10;;;34.60;48.20;;;;;;4917606;29;20074;-82
2022/08/06 14:24:35;;;;;;;4.53;1.77;;;34.90;46.90;;;;;;4919953;29;20055;-84
2022/08/06 14:27:22;;;;;;;3.78;1.58;;;34.50;46.60;;;;;;4902769;29;20056;-86
2022/08/06 14:30:08;;;;;;;4.78;1.73;;;34.40;45.90;;;;;;4904232;29;20084;-83
2022/08/06 14:36:37;;;;;;;3.40;1.42;;;34.90;45.80;;;;;;4925264;29;20048;-88
2022/08/06 14:39:23;;;;;;;3.30;1.60;;;34.70;46.30;;;;;;4926243;29;20064;-84
2022/08/06 14:45:14;;;;;;;4.57;1.50;;;34.30;46.40;;;;;;4922059;28;20111;-85
2022/08/06 14:48:00;;;;;;;5.30;1.55;;;33.90;45.40;;;;;;4919470;29;20095;-85
2022/08/06 14:50:47;;;;;;;3.25;1.48;;;33.80;45.90;;;;;;4901118;29;20056;-85
2022/08/06 14:53:33;;;;;;;4.38;1.42;;;34.30;45.70;;;;;;4918717;29;20044;-82
2022/08/06 14:56:19;;;;;;;4.85;1.60;;;33.90;44.80;;;;;;4917785;29;20096;-84
2022/08/06 14:59:05;;;;;;;3.60;1.50;;;33.40;45.60;;;;;;4902933;29;20071;-82